Time;durP1;ratioP1;P1;durP2;ratioP2;P2;SDS_P1;SDS_P2;PMS_P1;PMS_P2;Temp;Humidity;BMP_temperature;BMP_pressure;BME280_temperature;BME280_humidity;BME280_pressure;Samples;Min_cycle;Max_cycle;Signal;HPM_P1;HPM_P2
2023/04/08 00:01:06;;;;;;;10.32;5.22;;;;;;;2.50;94.07;98919.09;4160653;28;20084;-69
2023/04/08 00:03:07;;;;;;;9.63;5.90;;;;;;;2.49;94.55;98926.47;4162527;28;20124;-70
2023/04/08 00:05:07;;;;;;;8.73;5.90;;;;;;;2.54;94.15;98920.06;4162392;28;20068;-70
2023/04/08 00:07:08;;;;;;;8.20;5.72;;;;;;;2.55;94.52;98921.66;4161763;28;20033;-70
2023/04/08 00:09:08;;;;;;;12.00;7.53;;;;;;;2.56;94.97;98927.94;4164533;28;20064;-70
2023/04/08 00:11:08;;;;;;;17.27;9.27;;;;;;;2.53;95.83;98926.63;4162330;28;20107;-70
2023/04/08 00:13:09;;;;;;;11.35;7.75;;;;;;;2.57;95.50;98927.63;4163038;28;20045;-70
2023/04/08 00:15:09;;;;;;;12.40;7.45;;;;;;;2.53;96.03;98921.97;4162306;28;20128;-70
2023/04/08 00:17:10;;;;;;;10.30;5.80;;;;;;;2.57;95.93;98921.38;4163340;28;20112;-70
2023/04/08 00:19:11;;;;;;;7.65;4.82;;;;;;;2.57;95.60;98922.19;4163155;28;20061;-70
2023/04/08 00:21:12;;;;;;;10.57;5.85;;;;;;;2.58;95.78;98931.19;4162065;28;20052;-70
2023/04/08 00:23:12;;;;;;;7.68;5.10;;;;;;;2.58;96.06;98925.72;4162355;28;20444;-70
2023/04/08 00:25:13;;;;;;;7.30;4.63;;;;;;;2.58;97.49;98926.50;4161798;28;20432;-70
2023/04/08 00:27:13;;;;;;;9.27;6.22;;;;;;;2.59;98.57;98927.31;4162654;28;20045;-70
2023/04/08 00:29:13;;;;;;;10.77;5.05;;;;;;;2.61;99.18;98923.16;4165012;28;20112;-70
2023/04/08 00:31:14;;;;;;;7.22;5.25;;;;;;;2.61;99.21;98925.88;4161878;28;20057;-70
2023/04/08 00:33:15;;;;;;;12.45;6.75;;;;;;;2.63;100.00;98934.56;4160638;28;20111;-70
2023/04/08 00:35:15;;;;;;;9.23;6.30;;;;;;;2.61;100.00;98928.59;4161956;28;20595;-70
2023/04/08 00:37:16;;;;;;;9.25;6.30;;;;;;;2.64;100.00;98930.69;4162650;28;20037;-70
2023/04/08 00:39:16;;;;;;;9.27;6.25;;;;;;;2.66;100.00;98931.22;4167972;28;20088;-70
2023/04/08 00:41:17;;;;;;;10.00;6.00;;;;;;;2.68;100.00;98922.69;4161857;28;20037;-70
2023/04/08 00:43:19;;;;;;;11.68;6.57;;;;;;;2.69;100.00;98924.31;4161253;28;20273;-70
2023/04/08 00:45:20;;;;;;;;;;;;;;;2.71;100.00;98922.84;4161777;28;20072;-70
2023/04/08 00:47:20;;;;;;;8.90;5.72;;;;;;;2.70;100.00;98928.66;4163235;28;19925;-70
2023/04/08 00:49:21;;;;;;;9.63;6.60;;;;;;;2.70;100.00;98914.97;4162813;28;20057;-70
2023/04/08 00:51:21;;;;;;;7.97;5.43;;;;;;;2.72;100.00;98920.94;4162568;28;20056;-70
2023/04/08 00:53:21;;;;;;;8.77;5.43;;;;;;;2.72;100.00;98923.66;4160544;28;20049;-70
2023/04/08 00:55:22;;;;;;;9.73;5.15;;;;;;;2.69;100.00;98927.84;4161039;28;20402;-70
2023/04/08 00:57:22;;;;;;;7.97;5.30;;;;;;;2.72;100.00;98937.31;4162583;28;20076;-70
2023/04/08 00:59:22;;;;;;;9.05;5.05;;;;;;;2.73;100.00;98930.75;4166941;28;20041;-70
2023/04/08 01:02:01;;;;;;;12.02;7.80;;;;;;;2.76;100.00;98921.94;4168557;28;20045;-70
2023/04/08 01:04:16;;;;;;;17.17;9.60;;;;;;;2.79;100.00;98938.50;4158001;28;20577;-70
2023/04/08 01:06:36;;;;;;;12.60;7.10;;;;;;;2.81;100.00;98929.97;4161806;28;20382;-70
2023/04/08 01:08:38;;;;;;;11.45;5.72;;;;;;;2.77;100.00;98929.81;4161902;28;20383;-70
2023/04/08 01:10:41;;;;;;;;;;;;;;;2.80;100.00;98934.63;4163473;28;20071;-70
2023/04/08 01:13:08;;;;;;;9.40;5.72;;;;;;;2.82;100.00;98937.06;4164094;28;19924;-70
2023/04/08 01:15:11;;;;;;;9.38;5.35;;;;;;;2.80;100.00;98931.91;4160567;28;20037;-70
2023/04/08 01:17:11;;;;;;;8.25;5.47;;;;;;;2.80;100.00;98931.09;4163719;28;20068;-70
2023/04/08 01:19:25;;;;;;;7.85;4.85;;;;;;;2.86;100.00;98934.50;4161157;28;20033;-70
2023/04/08 01:21:27;;;;;;;11.77;5.40;;;;;;;2.88;100.00;98935.78;4163357;28;20359;-70
2023/04/08 01:23:57;;;;;;;8.93;5.55;;;;;;;2.90;100.00;98932.75;4161609;28;20050;-70
2023/04/08 01:25:58;;;;;;;9.02;5.00;;;;;;;2.88;100.00;98930.31;4161520;28;20526;-70
2023/04/08 01:28:05;;;;;;;7.45;4.90;;;;;;;2.90;100.00;98932.75;4161511;28;20041;-70
2023/04/08 01:30:07;;;;;;;6.70;4.97;;;;;;;2.92;100.00;98936.78;4160577;28;20047;-70
2023/04/08 01:32:09;;;;;;;9.13;5.05;;;;;;;2.96;100.00;98934.22;4161650;28;20412;-70
2023/04/08 01:34:12;;;;;;;;;;;;;;;2.97;100.00;98931.16;4161948;28;20458;-70
2023/04/08 01:36:14;;;;;;;9.00;5.07;;;;;;;2.98;100.00;98930.06;4161062;28;20011;-70
2023/04/08 01:38:18;;;;;;;7.60;4.97;;;;;;;2.98;100.00;98929.22;4161161;28;20116;-70
2023/04/08 01:40:19;;;;;;;7.68;4.68;;;;;;;3.00;100.00;98933.28;4161356;28;20018;-70
2023/04/08 01:42:20;;;;;;;7.15;4.72;;;;;;;3.01;100.00;98928.59;4160185;28;20095;-70
2023/04/08 01:44:21;;;;;;;8.57;4.80;;;;;;;3.01;100.00;98923.13;4160517;28;20057;-70
2023/04/08 01:46:22;;;;;;;7.88;5.45;;;;;;;2.99;100.00;98931.66;4161734;28;20041;-70
2023/04/08 01:48:23;;;;;;;7.50;4.97;;;;;;;3.01;100.00;98926.69;4160186;28;20125;-70
2023/04/08 01:50:25;;;;;;;7.50;5.40;;;;;;;3.02;100.00;98924.75;4161064;28;20033;-70
2023/04/08 01:52:27;;;;;;;7.55;4.80;;;;;;;3.01;100.00;98914.94;4159941;28;20453;-70
2023/04/08 01:54:28;;;;;;;7.57;4.90;;;;;;;3.03;100.00;98912.69;4161797;28;20045;-70
2023/04/08 01:56:35;;;;;;;6.82;5.07;;;;;;;3.03;100.00;98921.69;4160958;28;20045;-70
2023/04/08 01:58:39;;;;;;;7.28;4.55;;;;;;;3.03;100.00;98916.22;4161331;28;20052;-70
2023/04/08 02:00:42;;;;;;;7.47;5.93;;;;;;;3.05;100.00;98913.16;4159738;28;20078;-70
2023/04/08 02:02:45;;;;;;;6.47;4.65;;;;;;;3.06;100.00;98917.50;4160543;28;20041;-70
2023/04/08 02:04:46;;;;;;;7.60;5.30;;;;;;;3.09;100.00;98914.97;4159830;28;20083;-70
2023/04/08 02:06:46;;;;;;;9.82;6.00;;;;;;;3.10;100.00;98907.56;4163670;28;20053;-70
2023/04/08 02:08:47;;;;;;;7.43;4.80;;;;;;;3.08;100.00;98913.34;4167016;28;20068;-70
2023/04/08 02:10:47;;;;;;;8.63;5.32;;;;;;;3.14;100.00;98908.53;4160179;28;20077;-70
2023/04/08 02:12:47;;;;;;;7.07;5.15;;;;;;;3.14;100.00;98900.31;4159690;28;20374;-70
2023/04/08 02:14:48;;;;;;;7.30;4.78;;;;;;;3.17;100.00;98912.56;4160617;28;20392;-70
2023/04/08 02:16:53;;;;;;;9.48;5.57;;;;;;;3.16;100.00;98911.75;4160877;28;20124;-70
2023/04/08 02:18:57;;;;;;;7.70;4.63;;;;;;;3.17;100.00;98910.63;4159547;28;20049;-70
2023/04/08 02:21:08;;;;;;;10.43;4.97;;;;;;;3.17;100.00;98912.56;4161099;28;20069;-70
2023/04/08 02:23:23;;;;;;;7.22;5.00;;;;;;;3.16;100.00;98909.03;4160604;28;20057;-70
2023/04/08 02:25:25;;;;;;;8.10;4.93;;;;;;;3.16;100.00;98908.22;4162027;28;20367;-70
2023/04/08 02:27:27;;;;;;;9.27;5.30;;;;;;;3.14;100.00;98911.25;4160890;28;20397;-70
2023/04/08 02:29:30;;;;;;;8.73;5.55;;;;;;;3.14;100.00;98913.19;4160948;28;20060;-70
2023/04/08 02:31:32;;;;;;;7.70;4.90;;;;;;;3.17;100.00;98918.03;4160963;28;20037;-70
2023/04/08 02:33:34;;;;;;;6.95;4.55;;;;;;;3.14;100.00;98919.44;4160839;28;20071;-70
2023/04/08 02:35:35;;;;;;;6.63;4.47;;;;;;;3.18;100.00;98914.97;4159719;28;20045;-70
2023/04/08 02:37:36;;;;;;;6.75;4.88;;;;;;;3.17;100.00;98918.84;4161482;28;20041;-70
2023/04/08 02:39:36;;;;;;;7.32;4.82;;;;;;;3.18;100.00;98917.72;4165783;28;20631;-70
2023/04/08 02:41:36;;;;;;;7.07;4.60;;;;;;;3.14;100.00;98919.44;4159747;28;20057;-70
2023/04/08 02:43:37;;;;;;;8.48;5.03;;;;;;;3.12;100.00;98929.09;4160695;28;20049;-70
2023/04/08 02:45:42;;;;;;;8.10;5.40;;;;;;;3.12;100.00;98926.38;4161073;28;20047;-70
2023/04/08 02:47:43;;;;;;;7.05;5.10;;;;;;;3.11;100.00;98925.56;4163869;28;20063;-70
2023/04/08 02:49:43;;;;;;;8.05;5.18;;;;;;;3.14;100.00;98927.66;4160286;28;20029;-70
2023/04/08 02:51:43;;;;;;;6.45;4.63;;;;;;;3.17;100.00;98923.50;4160002;28;20136;-70
2023/04/08 02:53:44;;;;;;;8.88;5.50;;;;;;;3.12;100.00;98924.44;4158536;28;20041;-70
2023/04/08 02:55:44;;;;;;;8.20;5.30;;;;;;;3.13;100.00;98928.78;4160280;28;20172;-70
2023/04/08 02:57:47;;;;;;;8.38;5.53;;;;;;;3.09;100.00;98925.09;4160337;28;20041;-70
2023/04/08 02:59:47;;;;;;;;;;;;;;;3.15;100.00;98929.28;4160373;28;20041;-70
2023/04/08 03:01:47;;;;;;;9.18;5.65;;;;;;;3.15;100.00;98934.75;4160211;28;19936;-70
2023/04/08 03:03:47;;;;;;;11.70;5.50;;;;;;;3.14;100.00;98926.84;4162146;28;20329;-70
2023/04/08 03:05:48;;;;;;;7.18;5.28;;;;;;;3.17;100.00;98935.25;4162930;28;20049;-70
2023/04/08 03:07:48;;;;;;;8.93;5.03;;;;;;;3.16;100.00;98936.38;4158758;28;20041;-70
2023/04/08 03:09:48;;;;;;;9.20;6.03;;;;;;;3.16;100.00;98935.56;4159791;28;20132;-70
2023/04/08 03:11:52;;;;;;;9.18;5.70;;;;;;;3.12;100.00;98929.91;4160181;28;20401;-70
2023/04/08 03:13:52;;;;;;;9.00;5.60;;;;;;;3.10;100.00;98934.91;4157956;28;20369;-70
2023/04/08 03:15:52;;;;;;;9.43;5.47;;;;;;;3.09;100.00;98931.38;4162127;28;20436;-70
2023/04/08 03:17:52;;;;;;;9.57;5.70;;;;;;;3.13;100.00;98936.19;4164265;28;20042;-70
2023/04/08 03:19:53;;;;;;;8.20;5.10;;;;;;;3.14;100.00;98932.31;4163642;28;20053;-70
2023/04/08 03:21:53;;;;;;;9.68;6.10;;;;;;;3.16;100.00;98939.09;4159800;28;20075;-70
2023/04/08 03:23:53;;;;;;;8.02;5.55;;;;;;;3.19;100.00;98930.25;4173648;28;20119;-70
2023/04/08 03:25:54;;;;;;;8.52;6.30;;;;;;;3.17;100.00;98946.19;4160591;28;20128;-70
2023/04/08 03:27:54;;;;;;;9.52;5.75;;;;;;;3.17;100.00;98940.72;4158432;28;20096;-70
2023/04/08 03:29:56;;;;;;;9.15;5.82;;;;;;;3.17;100.00;98942.66;4161159;28;20103;-70
2023/04/08 03:31:57;;;;;;;9.02;6.28;;;;;;;3.16;100.00;98944.56;4158987;28;20045;-70
2023/04/08 03:33:57;;;;;;;7.03;5.20;;;;;;;3.15;100.00;98942.97;4159596;28;20596;-70
2023/04/08 03:35:57;;;;;;;9.35;5.80;;;;;;;3.11;100.00;98950.19;4160640;28;20072;-70
2023/04/08 03:37:58;;;;;;;8.60;5.68;;;;;;;3.13;100.00;98949.84;4159686;28;20381;-70
2023/04/08 03:39:58;;;;;;;10.20;6.15;;;;;;;3.14;100.00;98948.72;4160947;28;20657;-70
2023/04/08 03:41:59;;;;;;;8.63;5.60;;;;;;;3.17;100.00;98948.91;4162321;28;20132;-70
2023/04/08 03:44:00;;;;;;;9.00;5.97;;;;;;;3.19;100.00;98949.41;4160192;28;20084;-70
2023/04/08 03:46:00;;;;;;;10.88;6.25;;;;;;;3.16;100.00;98946.50;4159582;28;20397;-70
2023/04/08 03:48:00;;;;;;;9.75;6.03;;;;;;;3.18;100.00;98950.53;4162238;28;20124;-70
2023/04/08 03:50:01;;;;;;;10.73;5.82;;;;;;;3.21;100.00;98954.53;4158797;28;20077;-70
2023/04/08 03:52:01;;;;;;;10.10;5.25;;;;;;;3.21;100.00;98952.59;4158599;28;20129;-71
2023/04/08 03:54:02;;;;;;;8.45;5.70;;;;;;;3.22;100.00;98956.16;4159213;28;20085;-71
2023/04/08 03:56:03;;;;;;;8.75;5.90;;;;;;;3.20;100.00;98953.75;4158953;28;20560;-71
2023/04/08 03:58:03;;;;;;;10.07;6.10;;;;;;;3.19;100.00;98960.34;4159224;28;20029;-71
2023/04/08 04:00:05;;;;;;;7.80;5.50;;;;;;;3.20;100.00;98956.47;4160128;28;20037;-71
2023/04/08 04:02:05;;;;;;;10.00;6.45;;;;;;;3.23;100.00;98960.53;4158569;28;20471;-70
2023/04/08 04:04:06;;;;;;;11.68;6.43;;;;;;;3.20;100.00;98963.88;4141719;28;20061;-70
2023/04/08 04:06:06;;;;;;;11.05;6.50;;;;;;;3.14;100.00;98965.94;4158509;28;20029;-70
2023/04/08 04:08:08;;;;;;;9.43;6.20;;;;;;;3.18;100.00;98953.25;4160079;28;20052;-70
2023/04/08 04:10:09;;;;;;;11.68;7.05;;;;;;;3.18;100.00;98964.19;4159185;28;20155;-70
2023/04/08 04:12:10;;;;;;;10.88;6.88;;;;;;;3.13;100.00;98961.59;4159401;28;20076;-70
2023/04/08 04:14:10;;;;;;;9.98;6.35;;;;;;;3.14;100.00;98960.47;4161684;28;20065;-70
2023/04/08 04:16:10;;;;;;;9.63;6.25;;;;;;;3.16;100.00;98958.25;4159985;28;20095;-70
2023/04/08 04:18:11;;;;;;;11.73;6.40;;;;;;;3.17;100.00;98954.38;4161459;28;20091;-70
2023/04/08 04:20:11;;;;;;;11.15;6.47;;;;;;;3.14;100.00;98965.94;4143027;28;20129;-70
2023/04/08 04:22:11;;;;;;;9.93;6.35;;;;;;;3.12;100.00;98962.72;4159172;28;20022;-70
2023/04/08 04:24:12;;;;;;;10.00;6.38;;;;;;;3.13;100.00;98969.00;4158902;28;20061;-70
2023/04/08 04:26:14;;;;;;;10.60;7.03;;;;;;;3.18;100.00;98969.66;4141096;28;20038;-70
2023/04/08 04:28:14;;;;;;;9.30;5.97;;;;;;;3.13;100.00;98967.06;4159169;28;20374;-70
2023/04/08 04:30:15;;;;;;;9.02;6.30;;;;;;;3.11;100.00;98966.59;4158910;28;20021;-70
2023/04/08 04:32:15;;;;;;;10.18;6.15;;;;;;;3.09;100.00;98966.91;4159575;28;20095;-70
2023/04/08 04:34:16;;;;;;;10.80;6.50;;;;;;;3.13;100.00;98967.06;4157642;28;20029;-70
2023/04/08 04:36:16;;;;;;;9.30;6.38;;;;;;;3.09;100.00;98972.38;4162449;28;20079;-70
2023/04/08 04:38:17;;;;;;;9.38;5.78;;;;;;;3.10;100.00;98984.91;4163536;28;20043;-70
2023/04/08 04:40:17;;;;;;;10.13;6.40;;;;;;;3.07;100.00;98977.34;4162121;28;20497;-70
2023/04/08 04:42:17;;;;;;;9.85;6.38;;;;;;;3.10;100.00;98984.91;4162616;28;20021;-70
2023/04/08 04:44:18;;;;;;;12.90;6.47;;;;;;;3.09;100.00;98971.56;4162925;28;20083;-70
2023/04/08 04:46:18;;;;;;;10.73;6.65;;;;;;;3.11;100.00;98988.44;4163209;28;20025;-70
2023/04/08 04:48:19;;;;;;;11.98;6.70;;;;;;;3.10;100.00;98992.31;4163306;28;20029;-70
2023/04/08 04:50:19;;;;;;;9.65;6.22;;;;;;;3.13;100.00;98983.47;4162305;28;20045;-70
2023/04/08 04:52:20;;;;;;;11.48;7.00;;;;;;;3.09;100.00;98988.78;4161732;28;20021;-70
2023/04/08 04:54:20;;;;;;;11.60;6.57;;;;;;;3.09;100.00;98987.97;4160833;28;20057;-70
2023/04/08 04:56:20;;;;;;;10.50;6.57;;;;;;;3.13;100.00;98986.19;4161239;28;20067;-70
2023/04/08 04:58:21;;;;;;;10.88;5.80;;;;;;;3.13;100.00;98990.88;4168582;28;20158;-70
2023/04/08 05:00:21;;;;;;;10.32;6.70;;;;;;;3.09;100.00;98982.50;4161832;28;20042;-70
2023/04/08 05:02:21;;;;;;;14.48;6.70;;;;;;;3.13;100.00;98982.66;4163140;28;20069;-70
2023/04/08 05:04:23;;;;;;;11.25;6.47;;;;;;;3.10;100.00;98984.91;4162623;28;20060;-70
2023/04/08 05:06:23;;;;;;;18.15;7.22;;;;;;;3.13;100.00;98983.47;4162109;28;20128;-70
2023/04/08 05:08:24;;;;;;;14.93;7.45;;;;;;;3.15;100.00;98985.91;4160422;28;20538;-70
2023/04/08 05:10:24;;;;;;;11.20;7.30;;;;;;;3.15;100.00;98992.19;4163377;28;20052;-70
2023/04/08 05:12:26;;;;;;;8.63;5.68;;;;;;;3.22;100.00;98987.03;4162283;28;20107;-70
2023/04/08 05:14:29;;;;;;;10.80;6.82;;;;;;;3.26;100.00;98992.69;4160849;28;20041;-70
2023/04/08 05:16:29;;;;;;;12.00;6.90;;;;;;;3.22;100.00;98989.78;4161603;28;20064;-70
2023/04/08 05:18:30;;;;;;;11.63;7.22;;;;;;;3.24;100.00;98990.28;4163123;28;20038;-70
2023/04/08 05:20:30;;;;;;;9.70;6.88;;;;;;;3.22;100.00;98997.16;4161102;28;20051;-70
2023/04/08 05:22:31;;;;;;;10.68;6.65;;;;;;;3.22;100.00;98997.97;4161192;28;20057;-70
2023/04/08 05:24:31;;;;;;;13.25;7.50;;;;;;;3.21;100.00;99003.75;4161552;28;20405;-70
2023/04/08 05:26:31;;;;;;;11.30;6.13;;;;;;;3.20;100.00;99010.34;4161337;28;20129;-70
2023/04/08 05:28:32;;;;;;;12.57;7.32;;;;;;;3.21;100.00;99014.69;4168228;28;20128;-70
2023/04/08 05:30:32;;;;;;;10.82;6.85;;;;;;;3.19;100.00;99009.56;4160563;28;20471;-70
2023/04/08 05:32:32;;;;;;;11.88;6.63;;;;;;;3.23;100.00;99009.75;4160663;28;20045;-70
2023/04/08 05:34:33;;;;;;;13.02;7.13;;;;;;;3.23;100.00;99004.28;4161137;28;20103;-70
2023/04/08 05:36:33;;;;;;;11.68;6.90;;;;;;;3.23;100.00;99018.75;4164859;28;20073;-70
2023/04/08 05:38:33;;;;;;;12.88;6.72;;;;;;;3.19;100.00;99030.63;4161191;28;20140;-70
2023/04/08 05:40:34;;;;;;;16.85;7.90;;;;;;;3.23;100.00;99020.69;4161574;28;20057;-70
2023/04/08 05:42:34;;;;;;;11.88;7.28;;;;;;;3.24;100.00;99022.28;4160713;28;20085;-70
2023/04/08 05:44:34;;;;;;;15.15;7.63;;;;;;;3.15;100.00;99019.53;4161344;28;20037;-70
2023/04/08 05:46:35;;;;;;;12.10;8.07;;;;;;;3.18;100.00;99023.56;4160547;28;20033;-70
2023/04/08 05:48:35;;;;;;;13.90;7.75;;;;;;;3.19;100.00;99025.16;4161824;28;20068;-70
2023/04/08 05:50:36;;;;;;;13.07;7.53;;;;;;;3.16;100.00;99017.59;4162927;28;20050;-70
2023/04/08 05:52:36;;;;;;;14.90;8.05;;;;;;;3.19;100.00;99031.44;4163313;28;20084;-70
2023/04/08 05:54:36;;;;;;;15.13;7.97;;;;;;;3.25;100.00;99029.38;4130091;28;20044;-70
2023/04/08 05:56:36;;;;;;;13.43;7.60;;;;;;;3.25;100.00;99030.16;4174149;28;20068;-70
2023/04/08 05:58:37;;;;;;;12.73;7.05;;;;;;;3.25;100.00;99034.84;4161742;28;20045;-70
2023/04/08 06:00:37;;;;;;;12.85;7.32;;;;;;;3.27;100.00;99043.53;4161365;28;20505;-70
2023/04/08 06:02:38;;;;;;;13.38;7.68;;;;;;;3.23;100.00;99032.44;4164649;28;20103;-70
2023/04/08 06:04:38;;;;;;;15.15;7.07;;;;;;;3.24;100.00;99039.50;4161436;28;20049;-70
2023/04/08 06:06:39;;;;;;;14.15;7.65;;;;;;;3.27;100.00;99043.53;4161948;28;20034;-70
2023/04/08 06:08:39;;;;;;;13.88;7.82;;;;;;;3.29;100.00;99041.28;4160447;28;20466;-70
2023/04/08 06:10:40;;;;;;;10.23;6.57;;;;;;;3.32;100.00;99044.19;4160615;28;20099;-70
2023/04/08 06:12:40;;;;;;;9.75;6.20;;;;;;;3.30;100.00;99040.16;4162152;28;20523;-70
2023/04/08 06:14:40;;;;;;;10.60;5.82;;;;;;;3.29;100.00;99038.53;4160644;28;20119;-70
2023/04/08 06:16:41;;;;;;;10.40;6.10;;;;;;;3.31;100.00;99045.31;4162373;28;20038;-70
2023/04/08 06:18:42;;;;;;;13.63;7.60;;;;;;;3.32;100.00;99038.72;4161127;28;20052;-70
2023/04/08 06:20:42;;;;;;;10.60;5.93;;;;;;;3.33;100.00;99047.75;4163337;28;20072;-70
2023/04/08 06:22:42;;;;;;;11.20;6.20;;;;;;;3.36;100.00;99058.03;4162108;28;20067;-70
2023/04/08 06:24:43;;;;;;;11.95;6.30;;;;;;;3.34;100.00;99050.16;4160266;28;20508;-70
2023/04/08 06:26:43;;;;;;;12.27;6.78;;;;;;;3.38;100.00;99064.00;4160822;28;20080;-70
2023/04/08 06:28:43;;;;;;;11.45;6.22;;;;;;;3.37;100.00;99062.38;4164642;28;20409;-70
2023/04/08 06:30:44;;;;;;;10.68;6.55;;;;;;;3.37;100.00;99065.91;4160792;28;20046;-70
2023/04/08 06:32:46;;;;;;;11.55;6.68;;;;;;;3.37;100.00;99060.44;4161565;28;20148;-70
2023/04/08 06:34:47;;;;;;;10.10;6.10;;;;;;;3.46;100.00;99060.47;4159162;28;20037;-70
2023/04/08 06:36:49;;;;;;;10.73;6.38;;;;;;;3.44;100.00;99065.47;4160904;28;20052;-70
2023/04/08 06:38:49;;;;;;;11.63;7.28;;;;;;;3.45;100.00;99067.06;4160283;28;20038;-71
2023/04/08 06:40:49;;;;;;;11.02;6.88;;;;;;;3.45;100.00;99061.59;4161056;28;20147;-71
2023/04/08 06:42:49;;;;;;;11.20;6.10;;;;;;;3.40;100.00;99069.16;4162220;28;20453;-71
2023/04/08 06:44:50;;;;;;;18.92;9.82;;;;;;;3.41;100.00;99070.78;4160364;28;20339;-71
2023/04/08 06:46:50;;;;;;;13.50;6.75;;;;;;;3.42;100.00;99066.91;4160713;28;20052;-71
2023/04/08 06:48:51;;;;;;;12.00;6.40;;;;;;;3.47;100.00;99074.97;4158818;28;20104;-71
2023/04/08 06:50:51;;;;;;;7.80;5.80;;;;;;;3.42;100.00;99075.94;4160024;28;20068;-71
2023/04/08 06:52:51;;;;;;;11.88;6.43;;;;;;;3.47;100.00;99080.44;4159613;28;20294;-71
2023/04/08 06:54:52;;;;;;;11.02;6.57;;;;;;;3.47;100.00;99080.44;4160210;28;20374;-71
2023/04/08 06:56:52;;;;;;;9.73;6.35;;;;;;;3.45;100.00;99078.03;4163661;28;20059;-71
2023/04/08 06:58:52;;;;;;;10.02;6.57;;;;;;;3.47;100.00;99083.97;4160392;28;20042;-71
2023/04/08 07:00:54;;;;;;;10.43;6.28;;;;;;;3.48;100.00;99082.06;4165972;28;20517;-71
2023/04/08 07:02:54;;;;;;;10.50;6.43;;;;;;;3.50;100.00;99096.22;4158626;28;20049;-71
2023/04/08 07:04:55;;;;;;;10.13;5.65;;;;;;;3.53;100.00;99090.94;4160023;28;20152;-71
2023/04/08 07:06:55;;;;;;;7.60;4.85;;;;;;;3.51;100.00;99093.19;4163636;28;20037;-71
2023/04/08 07:08:55;;;;;;;6.50;4.50;;;;;;;3.54;100.00;99092.53;4160359;28;20117;-71
2023/04/08 07:10:56;;;;;;;11.75;8.13;;;;;;;3.54;100.00;99097.19;4160265;28;20423;-71
2023/04/08 07:12:56;;;;;;;9.63;6.72;;;;;;;3.55;100.00;99093.34;4159355;28;20037;-71
2023/04/08 07:14:56;;;;;;;8.65;4.95;;;;;;;3.57;100.00;99097.38;4158481;28;20198;-71
2023/04/08 07:16:57;;;;;;;9.07;4.93;;;;;;;3.58;100.00;99090.78;4159819;28;20038;-70
2023/04/08 07:18:57;;;;;;;8.50;4.90;;;;;;;3.60;100.00;99101.41;4166971;28;20068;-71
2023/04/08 07:20:59;;;;;;;6.65;4.60;;;;;;;3.60;100.00;99104.16;4159341;28;20047;-71
2023/04/08 07:23:00;;;;;;;8.32;4.40;;;;;;;3.62;100.00;99096.44;4159133;28;20180;-71
2023/04/08 07:25:00;;;;;;;8.00;5.22;;;;;;;3.66;100.00;99100.16;4158981;28;20091;-71
2023/04/08 07:27:01;;;;;;;6.90;4.35;;;;;;;3.63;100.00;99098.84;4159076;28;20061;-71
2023/04/08 07:29:01;;;;;;;7.28;4.85;;;;;;;3.67;100.00;99097.09;4161184;28;20049;-71
2023/04/08 07:31:16;;;;;;;6.32;4.35;;;;;;;3.69;100.00;99102.25;4163080;28;20081;-71
2023/04/08 07:33:16;;;;;;;6.22;4.28;;;;;;;3.74;100.00;99109.53;4159263;28;20097;-71
2023/04/08 07:35:23;;;;;;;7.55;4.47;;;;;;;3.76;100.00;99110.81;4158653;28;20478;-71
2023/04/08 07:37:23;;;;;;;5.90;4.07;;;;;;;3.81;100.00;99118.88;4160907;28;20081;-71
2023/04/08 07:39:23;;;;;;;7.82;4.25;;;;;;;3.82;100.00;99114.22;4160098;28;20500;-71
2023/04/08 07:41:24;;;;;;;7.00;4.18;;;;;;;3.83;100.00;99113.88;4159624;28;20567;-71
2023/04/08 07:43:24;;;;;;;8.55;4.80;;;;;;;3.83;100.00;99113.88;4157873;28;20045;-71
2023/04/08 07:45:24;;;;;;;5.80;3.90;;;;;;;3.92;100.00;99117.44;4159540;28;20045;-71
2023/04/08 07:47:25;;;;;;;6.03;3.83;;;;;;;3.90;100.00;99113.44;4159794;28;20033;-71
2023/04/08 07:49:25;;;;;;;5.93;3.50;;;;;;;3.91;100.00;99109.56;4158298;28;20045;-71
2023/04/08 07:51:26;;;;;;;6.22;3.83;;;;;;;3.95;100.00;99114.06;4161502;28;20049;-71
2023/04/08 07:53:27;;;;;;;5.55;4.20;;;;;;;3.93;100.00;99097.16;4163727;28;20825;-71
2023/04/08 07:55:31;;;;;;;4.85;3.17;;;;;;;3.92;100.00;99090.06;4158748;28;20076;-71
2023/04/08 07:57:32;;;;;;;5.25;3.35;;;;;;;4.03;100.00;99095.25;4157825;28;20041;-71
2023/04/08 07:59:32;;;;;;;5.75;3.20;;;;;;;4.01;100.00;99094.75;4160008;28;20525;-70
2023/04/08 08:01:34;;;;;;;4.60;3.55;;;;;;;4.01;100.00;99114.72;4159182;28;20053;-70
2023/04/08 08:03:35;;;;;;;6.05;4.25;;;;;;;3.93;100.00;99107.31;4157754;28;20045;-70
2023/04/08 08:05:36;;;;;;;5.97;2.78;;;;;;;3.94;100.00;99119.88;4165367;28;20045;-71
2023/04/08 08:07:36;;;;;;;7.43;2.92;;;;;;;3.92;100.00;99122.94;4158996;28;20049;-71
2023/04/08 08:09:36;;;;;;;8.57;5.63;;;;;;;3.88;100.00;99112.91;4162423;28;20155;-71
2023/04/08 08:11:37;;;;;;;6.55;2.95;;;;;;;3.89;100.00;99115.38;4161798;28;20453;-71
2023/04/08 08:13:37;;;;;;;6.45;3.97;;;;;;;3.92;100.00;99128.41;4162075;28;20179;-71
2023/04/08 08:15:37;;;;;;;7.47;4.10;;;;;;;3.92;100.00;99127.59;4162521;28;20072;-71
2023/04/08 08:17:38;;;;;;;5.38;3.50;;;;;;;3.95;100.00;99135.16;4162032;28;20040;-70
2023/04/08 08:19:38;;;;;;;8.95;3.75;;;;;;;3.96;100.00;99145.00;4162632;28;20421;-71
2023/04/08 08:21:39;;;;;;;8.07;4.53;;;;;;;3.97;100.00;99151.28;4162212;28;20075;-71
2023/04/08 08:23:39;;;;;;;7.07;4.25;;;;;;;3.90;100.00;99143.53;4166100;28;20735;-70
2023/04/08 08:25:39;;;;;;;5.57;3.42;;;;;;;3.94;100.00;99156.25;4161930;28;20306;-71
2023/04/08 08:27:41;;;;;;;6.75;3.83;;;;;;;3.93;100.00;99151.91;4165945;28;20045;-70
2023/04/08 08:29:41;;;;;;;6.15;3.38;;;;;;;3.85;100.00;99151.88;4161441;28;20056;-70
2023/04/08 08:31:42;;;;;;;5.25;3.20;;;;;;;3.91;100.00;99156.91;4161688;28;20038;-70
2023/04/08 08:33:42;;;;;;;5.50;2.85;;;;;;;3.88;100.00;99157.53;4161567;28;20425;-71
2023/04/08 08:35:42;;;;;;;5.57;3.40;;;;;;;3.88;100.00;99159.47;4162132;28;20049;-70
2023/04/08 08:37:43;;;;;;;9.77;3.78;;;;;;;3.87;100.00;99161.38;4162091;28;20421;-70
2023/04/08 08:39:43;;;;;;;8.02;4.05;;;;;;;3.84;100.00;99150.28;4161384;28;20037;-71
2023/04/08 08:41:43;;;;;;;6.20;3.42;;;;;;;3.87;100.00;99161.38;4162028;28;20203;-70
2023/04/08 08:43:44;;;;;;;9.55;3.80;;;;;;;3.81;100.00;99162.69;4161178;28;20045;-70
2023/04/08 08:45:44;;;;;;;6.40;3.45;;;;;;;3.81;100.00;99164.59;4161348;28;20114;-70
2023/04/08 08:47:44;;;;;;;7.07;3.95;;;;;;;3.78;100.00;99168.75;4164419;28;20430;-71
2023/04/08 08:49:46;;;;;;;6.53;4.53;;;;;;;3.73;100.00;99168.94;4161530;28;20037;-71
2023/04/08 08:51:47;;;;;;;7.25;3.85;;;;;;;3.70;100.00;99163.25;4162068;28;20092;-70
2023/04/08 08:53:48;;;;;;;9.68;4.28;;;;;;;3.74;100.00;99164.25;4160534;28;20129;-71
2023/04/08 08:55:48;;;;;;;7.93;4.55;;;;;;;3.75;100.00;99165.88;4161583;28;20517;-71
2023/04/08 08:57:50;;;;;;;9.77;4.20;;;;;;;3.77;100.00;99167.16;4161911;28;20045;-70
2023/04/08 08:59:50;;;;;;;10.07;5.25;;;;;;;3.76;100.00;99170.22;4161437;28;20179;-70
2023/04/08 09:01:50;;;;;;;8.15;4.53;;;;;;;3.76;100.00;99181.97;4163610;28;20489;-70
2023/04/08 09:04:07;;;;;;;7.72;4.10;;;;;;;3.81;100.00;99183.78;4165571;28;20083;-70
2023/04/08 09:06:08;;;;;;;8.95;4.40;;;;;;;3.73;100.00;99185.34;4162811;28;20477;-70
2023/04/08 09:08:31;;;;;;;7.93;4.65;;;;;;;3.73;100.00;99184.53;4162430;28;20744;-71
2023/04/08 09:10:32;;;;;;;7.63;4.57;;;;;;;3.75;100.00;99191.31;4161833;28;20069;-71
2023/04/08 09:12:32;;;;;;;11.02;5.65;;;;;;;3.79;100.00;99194.22;4161738;28;20081;-71
2023/04/08 09:14:32;;;;;;;8.15;4.60;;;;;;;3.78;100.00;99196.13;4161664;28;20144;-71
2023/04/08 09:16:33;;;;;;;6.55;4.43;;;;;;;3.80;100.00;99177.47;4163220;28;20045;-71
2023/04/08 09:18:34;;;;;;;9.38;5.38;;;;;;;3.71;100.00;99178.56;4161215;28;20381;-71
2023/04/08 09:20:35;;;;;;;9.45;5.68;;;;;;;3.71;100.00;99187.56;4160731;28;20045;-71
2023/04/08 09:22:54;;;;;;;10.30;5.93;;;;;;;3.76;100.00;99195.66;4161782;28;21206;-71
2023/04/08 09:24:55;;;;;;;11.70;5.22;;;;;;;3.83;100.00;99197.94;4162439;28;20057;-70
2023/04/08 09:26:55;;;;;;;8.88;4.30;;;;;;;3.77;100.00;99199.19;4166553;28;20137;-71
2023/04/08 09:28:59;;;;;;;7.93;4.38;;;;;;;3.77;100.00;99200.00;4162272;28;20700;-71
2023/04/08 09:31:00;;;;;;;8.88;4.60;;;;;;;3.82;100.00;99208.09;4161353;28;20041;-71